sensor_id;sensor_type;location;lat;lon;timestamp;temperature;humidity
19252;DHT22;9760;50.944;5.304;2023-08-30T00:00:17;13.80;99.90
19252;DHT22;9760;50.944;5.304;2023-08-30T00:02:44;13.90;99.90
19252;DHT22;9760;50.944;5.304;2023-08-30T00:05:10;13.90;99.90
19252;DHT22;9760;50.944;5.304;2023-08-30T00:07:36;13.90;99.90
19252;DHT22;9760;50.944;5.304;2023-08-30T00:10:02;14.00;99.90
19252;DHT22;9760;50.944;5.304;2023-08-30T00:12:28;14.00;99.90
19252;DHT22;9760;50.944;5.304;2023-08-30T00:14:53;13.90;99.90
19252;DHT22;9760;50.944;5.304;2023-08-30T00:17:19;13.90;99.90
19252;DHT22;9760;50.944;5.304;2023-08-30T00:19:45;13.90;99.90
19252;DHT22;9760;50.944;5.304;2023-08-30T00:22:11;13.80;99.90
19252;DHT22;9760;50.944;5.304;2023-08-30T00:24:38;13.70;99.90
19252;DHT22;9760;50.944;5.304;2023-08-30T00:27:04;13.80;99.90
19252;DHT22;9760;50.944;5.304;2023-08-30T00:29:30;13.80;99.90
19252;DHT22;9760;50.944;5.304;2023-08-30T00:31:55;13.70;99.90
19252;DHT22;9760;50.944;5.304;2023-08-30T00:34:21;13.70;99.90
19252;DHT22;9760;50.944;5.304;2023-08-30T00:36:47;13.70;99.90
19252;DHT22;9760;50.944;5.304;2023-08-30T00:39:13;13.70;99.90
19252;DHT22;9760;50.944;5.304;2023-08-30T00:41:39;13.70;99.90
19252;DHT22;9760;50.944;5.304;2023-08-30T00:44:04;13.70;99.90
19252;DHT22;9760;50.944;5.304;2023-08-30T00:46:31;13.70;99.90
19252;DHT22;9760;50.944;5.304;2023-08-30T00:48:58;13.80;99.90
19252;DHT22;9760;50.944;5.304;2023-08-30T00:51:25;13.80;99.90
19252;DHT22;9760;50.944;5.304;2023-08-30T00:53:50;13.80;99.90
19252;DHT22;9760;50.944;5.304;2023-08-30T00:56:17;13.90;99.90
19252;DHT22;9760;50.944;5.304;2023-08-30T00:58:43;14.00;99.90
19252;DHT22;9760;50.944;5.304;2023-08-30T01:01:09;14.00;99.90
19252;DHT22;9760;50.944;5.304;2023-08-30T01:03:35;13.90;99.90
19252;DHT22;9760;50.944;5.304;2023-08-30T01:06:01;13.90;99.90
19252;DHT22;9760;50.944;5.304;2023-08-30T01:08:27;14.00;99.90
19252;DHT22;9760;50.944;5.304;2023-08-30T01:11:13;14.10;99.90
19252;DHT22;9760;50.944;5.304;2023-08-30T01:13:47;14.10;99.90
19252;DHT22;9760;50.944;5.304;2023-08-30T01:16:16;14.00;99.90
19252;DHT22;9760;50.944;5.304;2023-08-30T01:18:43;14.00;99.90
19252;DHT22;9760;50.944;5.304;2023-08-30T01:21:14;14.10;99.90
19252;DHT22;9760;50.944;5.304;2023-08-30T01:23:49;14.20;99.90
19252;DHT22;9760;50.944;5.304;2023-08-30T01:27:15;14.10;99.90
19252;DHT22;9760;50.944;5.304;2023-08-30T01:29:17;14.10;99.90
19252;DHT22;9760;50.944;5.304;2023-08-30T01:31:45;14.10;99.90
19252;DHT22;9760;50.944;5.304;2023-08-30T01:34:12;14.10;99.90
19252;DHT22;9760;50.944;5.304;2023-08-30T01:36:39;14.10;99.90
19252;DHT22;9760;50.944;5.304;2023-08-30T01:39:10;14.00;99.90
19252;DHT22;9760;50.944;5.304;2023-08-30T01:41:36;14.10;99.90
19252;DHT22;9760;50.944;5.304;2023-08-30T01:44:04;14.20;99.90
19252;DHT22;9760;50.944;5.304;2023-08-30T01:46:32;14.00;99.90
19252;DHT22;9760;50.944;5.304;2023-08-30T01:49:00;14.00;99.90
19252;DHT22;9760;50.944;5.304;2023-08-30T01:51:27;14.00;99.90
19252;DHT22;9760;50.944;5.304;2023-08-30T01:53:54;13.90;99.90
19252;DHT22;9760;50.944;5.304;2023-08-30T01:56:21;13.90;99.90
19252;DHT22;9760;50.944;5.304;2023-08-30T01:58:47;13.90;99.90
19252;DHT22;9760;50.944;5.304;2023-08-30T02:01:12;13.90;99.90
19252;DHT22;9760;50.944;5.304;2023-08-30T02:03:39;13.90;99.90
19252;DHT22;9760;50.944;5.304;2023-08-30T02:08:41;13.90;99.90
19252;DHT22;9760;50.944;5.304;2023-08-30T02:11:11;13.90;99.90
19252;DHT22;9760;50.944;5.304;2023-08-30T02:13:38;13.90;99.90
19252;DHT22;9760;50.944;5.304;2023-08-30T02:16:05;13.90;99.90
19252;DHT22;9760;50.944;5.304;2023-08-30T02:18:32;14.00;99.90
19252;DHT22;9760;50.944;5.304;2023-08-30T02:20:58;14.00;99.90
19252;DHT22;9760;50.944;5.304;2023-08-30T02:23:24;14.00;99.90
19252;DHT22;9760;50.944;5.304;2023-08-30T02:25:50;14.10;99.90
19252;DHT22;9760;50.944;5.304;2023-08-30T02:28:16;14.10;99.90
19252;DHT22;9760;50.944;5.304;2023-08-30T02:30:42;14.10;99.90
19252;DHT22;9760;50.944;5.304;2023-08-30T02:33:07;14.10;99.90
19252;DHT22;9760;50.944;5.304;2023-08-30T02:35:33;14.10;99.90
19252;DHT22;9760;50.944;5.304;2023-08-30T02:37:59;14.20;99.90
19252;DHT22;9760;50.944;5.304;2023-08-30T02:40:25;14.20;99.90
19252;DHT22;9760;50.944;5.304;2023-08-30T02:42:50;14.30;99.90
19252;DHT22;9760;50.944;5.304;2023-08-30T02:45:16;14.30;99.90
19252;DHT22;9760;50.944;5.304;2023-08-30T02:47:41;14.30;99.90
19252;DHT22;9760;50.944;5.304;2023-08-30T02:50:07;14.30;99.90
19252;DHT22;9760;50.944;5.304;2023-08-30T02:52:33;14.40;99.90
19252;DHT22;9760;50.944;5.304;2023-08-30T02:54:58;14.40;99.90
19252;DHT22;9760;50.944;5.304;2023-08-30T02:57:24;14.30;99.90
19252;DHT22;9760;50.944;5.304;2023-08-30T02:59:50;14.30;99.90
19252;DHT22;9760;50.944;5.304;2023-08-30T03:02:15;14.40;99.90
19252;DHT22;9760;50.944;5.304;2023-08-30T03:04:41;14.40;99.90
19252;DHT22;9760;50.944;5.304;2023-08-30T03:07:08;14.30;99.90
19252;DHT22;9760;50.944;5.304;2023-08-30T03:09:34;14.40;99.90
19252;DHT22;9760;50.944;5.304;2023-08-30T03:11:59;14.50;99.90
19252;DHT22;9760;50.944;5.304;2023-08-30T03:14:25;14.60;99.90
19252;DHT22;9760;50.944;5.304;2023-08-30T03:16:50;14.60;99.90
19252;DHT22;9760;50.944;5.304;2023-08-30T03:19:16;14.50;99.90
19252;DHT22;9760;50.944;5.304;2023-08-30T03:21:43;14.50;99.90
19252;DHT22;9760;50.944;5.304;2023-08-30T03:24:09;14.50;99.90
19252;DHT22;9760;50.944;5.304;2023-08-30T03:26:34;14.50;99.90
19252;DHT22;9760;50.944;5.304;2023-08-30T03:29:00;14.60;99.90
19252;DHT22;9760;50.944;5.304;2023-08-30T03:31:26;14.60;99.90
19252;DHT22;9760;50.944;5.304;2023-08-30T03:33:51;14.50;99.90
19252;DHT22;9760;50.944;5.304;2023-08-30T03:36:18;14.50;99.90
19252;DHT22;9760;50.944;5.304;2023-08-30T03:38:44;14.60;99.90
19252;DHT22;9760;50.944;5.304;2023-08-30T03:41:11;14.60;99.90
19252;DHT22;9760;50.944;5.304;2023-08-30T03:43:37;14.50;99.90
19252;DHT22;9760;50.944;5.304;2023-08-30T03:46:03;14.50;99.90
19252;DHT22;9760;50.944;5.304;2023-08-30T03:48:30;14.50;99.90
19252;DHT22;9760;50.944;5.304;2023-08-30T03:50:56;14.50;99.90
19252;DHT22;9760;50.944;5.304;2023-08-30T03:53:23;14.60;99.90
19252;DHT22;9760;50.944;5.304;2023-08-30T03:55:49;14.70;99.90
19252;DHT22;9760;50.944;5.304;2023-08-30T03:58:15;14.70;99.90
19252;DHT22;9760;50.944;5.304;2023-08-30T04:00:41;14.80;99.90
19252;DHT22;9760;50.944;5.304;2023-08-30T04:03:08;14.80;99.90
19252;DHT22;9760;50.944;5.304;2023-08-30T04:05:35;14.80;99.90
19252;DHT22;9760;50.944;5.304;2023-08-30T04:08:04;14.90;99.90
19252;DHT22;9760;50.944;5.304;2023-08-30T04:10:41;14.90;99.90
19252;DHT22;9760;50.944;5.304;2023-08-30T04:13:07;14.90;99.90
19252;DHT22;9760;50.944;5.304;2023-08-30T04:15:38;14.90;99.90
19252;DHT22;9760;50.944;5.304;2023-08-30T04:18:05;14.80;99.90
19252;DHT22;9760;50.944;5.304;2023-08-30T04:20:31;14.80;99.90
19252;DHT22;9760;50.944;5.304;2023-08-30T04:23:00;14.70;99.90
19252;DHT22;9760;50.944;5.304;2023-08-30T04:25:30;14.80;99.90
19252;DHT22;9760;50.944;5.304;2023-08-30T04:27:56;14.80;99.90
19252;DHT22;9760;50.944;5.304;2023-08-30T04:30:22;14.80;99.90
19252;DHT22;9760;50.944;5.304;2023-08-30T04:32:47;14.80;99.90
19252;DHT22;9760;50.944;5.304;2023-08-30T04:35:13;14.70;99.90
19252;DHT22;9760;50.944;5.304;2023-08-30T04:37:39;14.70;99.90
19252;DHT22;9760;50.944;5.304;2023-08-30T04:40:06;14.70;99.90
19252;DHT22;9760;50.944;5.304;2023-08-30T04:42:33;14.60;99.90
19252;DHT22;9760;50.944;5.304;2023-08-30T04:44:58;14.60;99.90
19252;DHT22;9760;50.944;5.304;2023-08-30T04:47:27;14.60;99.90
19252;DHT22;9760;50.944;5.304;2023-08-30T04:49:53;14.70;99.90
19252;DHT22;9760;50.944;5.304;2023-08-30T04:52:19;14.70;99.90
19252;DHT22;9760;50.944;5.304;2023-08-30T04:54:44;14.60;99.90
19252;DHT22;9760;50.944;5.304;2023-08-30T04:57:11;14.60;99.90
19252;DHT22;9760;50.944;5.304;2023-08-30T04:59:40;14.60;99.90
19252;DHT22;9760;50.944;5.304;2023-08-30T05:02:06;14.60;99.90
19252;DHT22;9760;50.944;5.304;2023-08-30T05:04:32;14.60;99.90
19252;DHT22;9760;50.944;5.304;2023-08-30T05:06:58;14.50;99.90
19252;DHT22;9760;50.944;5.304;2023-08-30T05:09:23;14.50;99.90
19252;DHT22;9760;50.944;5.304;2023-08-30T05:11:51;14.50;99.90
19252;DHT22;9760;50.944;5.304;2023-08-30T05:14:17;14.50;99.90
19252;DHT22;9760;50.944;5.304;2023-08-30T05:16:42;14.50;99.90
19252;DHT22;9760;50.944;5.304;2023-08-30T05:19:08;14.50;99.90
19252;DHT22;9760;50.944;5.304;2023-08-30T05:21:34;14.60;99.90
19252;DHT22;9760;50.944;5.304;2023-08-30T05:23:59;14.70;99.90
19252;DHT22;9760;50.944;5.304;2023-08-30T05:26:25;14.70;99.90
19252;DHT22;9760;50.944;5.304;2023-08-30T05:28:51;14.70;99.90
19252;DHT22;9760;50.944;5.304;2023-08-30T05:31:17;14.70;99.90
19252;DHT22;9760;50.944;5.304;2023-08-30T05:33:43;14.80;99.90
19252;DHT22;9760;50.944;5.304;2023-08-30T05:36:08;14.80;99.90
19252;DHT22;9760;50.944;5.304;2023-08-30T05:38:34;14.90;99.90
19252;DHT22;9760;50.944;5.304;2023-08-30T05:40:59;14.80;99.90
19252;DHT22;9760;50.944;5.304;2023-08-30T05:43:25;14.90;99.90
19252;DHT22;9760;50.944;5.304;2023-08-30T05:45:51;14.90;99.90
19252;DHT22;9760;50.944;5.304;2023-08-30T05:48:16;14.90;99.90
19252;DHT22;9760;50.944;5.304;2023-08-30T05:50:42;14.90;99.90
19252;DHT22;9760;50.944;5.304;2023-08-30T05:53:08;14.90;99.90
19252;DHT22;9760;50.944;5.304;2023-08-30T05:55:33;15.00;99.90
19252;DHT22;9760;50.944;5.304;2023-08-30T05:57:59;14.90;99.90
19252;DHT22;9760;50.944;5.304;2023-08-30T06:00:25;14.90;99.90
19252;DHT22;9760;50.944;5.304;2023-08-30T06:02:51;14.90;99.90
19252;DHT22;9760;50.944;5.304;2023-08-30T06:05:18;14.80;99.90
19252;DHT22;9760;50.944;5.304;2023-08-30T06:07:43;14.90;99.90
19252;DHT22;9760;50.944;5.304;2023-08-30T06:10:10;15.00;99.90
19252;DHT22;9760;50.944;5.304;2023-08-30T06:12:35;15.00;99.90
19252;DHT22;9760;50.944;5.304;2023-08-30T06:15:01;15.00;99.90
19252;DHT22;9760;50.944;5.304;2023-08-30T06:17:27;15.10;99.90
19252;DHT22;9760;50.944;5.304;2023-08-30T06:19:52;14.90;99.90
19252;DHT22;9760;50.944;5.304;2023-08-30T06:22:18;14.90;99.90
19252;DHT22;9760;50.944;5.304;2023-08-30T06:24:43;14.70;99.90
19252;DHT22;9760;50.944;5.304;2023-08-30T06:27:09;14.70;99.90
19252;DHT22;9760;50.944;5.304;2023-08-30T06:29:35;14.70;99.90
19252;DHT22;9760;50.944;5.304;2023-08-30T06:32:00;14.70;99.90
19252;DHT22;9760;50.944;5.304;2023-08-30T06:34:26;14.70;99.90
19252;DHT22;9760;50.944;5.304;2023-08-30T06:36:52;14.80;99.90
19252;DHT22;9760;50.944;5.304;2023-08-30T06:39:17;14.80;99.90
19252;DHT22;9760;50.944;5.304;2023-08-30T06:41:44;14.80;99.90
19252;DHT22;9760;50.944;5.304;2023-08-30T06:44:09;14.80;99.90
19252;DHT22;9760;50.944;5.304;2023-08-30T06:46:36;14.80;99.90
19252;DHT22;9760;50.944;5.304;2023-08-30T06:49:03;14.80;99.90
19252;DHT22;9760;50.944;5.304;2023-08-30T06:51:29;14.90;99.90
19252;DHT22;9760;50.944;5.304;2023-08-30T06:53:54;14.90;99.90
19252;DHT22;9760;50.944;5.304;2023-08-30T06:56:22;15.10;99.90
19252;DHT22;9760;50.944;5.304;2023-08-30T06:58:48;14.90;99.90
19252;DHT22;9760;50.944;5.304;2023-08-30T07:01:14;15.00;99.90
19252;DHT22;9760;50.944;5.304;2023-08-30T07:03:39;15.00;99.90
19252;DHT22;9760;50.944;5.304;2023-08-30T07:06:05;15.00;99.90
19252;DHT22;9760;50.944;5.304;2023-08-30T07:08:31;15.00;99.90
19252;DHT22;9760;50.944;5.304;2023-08-30T07:10:58;15.00;99.90
19252;DHT22;9760;50.944;5.304;2023-08-30T07:13:23;15.10;99.90
19252;DHT22;9760;50.944;5.304;2023-08-30T07:15:49;15.00;99.90
19252;DHT22;9760;50.944;5.304;2023-08-30T07:18:15;15.10;99.90
19252;DHT22;9760;50.944;5.304;2023-08-30T07:20:40;15.10;99.90
19252;DHT22;9760;50.944;5.304;2023-08-30T07:23:06;15.10;99.90
19252;DHT22;9760;50.944;5.304;2023-08-30T07:25:32;15.10;99.90
19252;DHT22;9760;50.944;5.304;2023-08-30T07:28:02;15.20;99.90
19252;DHT22;9760;50.944;5.304;2023-08-30T07:30:28;15.10;99.90
19252;DHT22;9760;50.944;5.304;2023-08-30T07:32:54;15.20;99.90
19252;DHT22;9760;50.944;5.304;2023-08-30T07:35:20;15.20;99.90
19252;DHT22;9760;50.944;5.304;2023-08-30T07:37:46;15.30;99.90
19252;DHT22;9760;50.944;5.304;2023-08-30T07:40:12;15.50;99.90
19252;DHT22;9760;50.944;5.304;2023-08-30T07:42:37;15.60;99.90
19252;DHT22;9760;50.944;5.304;2023-08-30T07:45:04;15.50;99.90
19252;DHT22;9760;50.944;5.304;2023-08-30T07:47:30;15.50;99.90
19252;DHT22;9760;50.944;5.304;2023-08-30T07:49:55;15.50;99.90
19252;DHT22;9760;50.944;5.304;2023-08-30T07:52:21;15.50;99.90
19252;DHT22;9760;50.944;5.304;2023-08-30T07:54:47;15.60;99.90
19252;DHT22;9760;50.944;5.304;2023-08-30T07:57:13;15.50;99.90
19252;DHT22;9760;50.944;5.304;2023-08-30T07:59:38;15.50;99.90
19252;DHT22;9760;50.944;5.304;2023-08-30T08:02:05;15.30;99.90
19252;DHT22;9760;50.944;5.304;2023-08-30T08:04:35;14.90;99.90
19252;DHT22;9760;50.944;5.304;2023-08-30T08:07:01;14.90;99.90
19252;DHT22;9760;50.944;5.304;2023-08-30T08:09:27;14.80;99.90
19252;DHT22;9760;50.944;5.304;2023-08-30T08:11:53;14.70;99.90
19252;DHT22;9760;50.944;5.304;2023-08-30T08:14:19;14.60;99.90
19252;DHT22;9760;50.944;5.304;2023-08-30T08:16:45;14.60;99.90
19252;DHT22;9760;50.944;5.304;2023-08-30T08:19:10;14.60;99.90
19252;DHT22;9760;50.944;5.304;2023-08-30T08:21:38;14.50;99.90
19252;DHT22;9760;50.944;5.304;2023-08-30T08:24:03;14.50;99.90
19252;DHT22;9760;50.944;5.304;2023-08-30T08:26:29;14.60;99.90
19252;DHT22;9760;50.944;5.304;2023-08-30T08:28:55;14.50;99.90
19252;DHT22;9760;50.944;5.304;2023-08-30T08:31:21;14.50;99.90
19252;DHT22;9760;50.944;5.304;2023-08-30T08:33:49;14.40;99.90
19252;DHT22;9760;50.944;5.304;2023-08-30T08:36:15;14.30;99.90
19252;DHT22;9760;50.944;5.304;2023-08-30T08:38:40;14.30;99.90
19252;DHT22;9760;50.944;5.304;2023-08-30T08:41:06;14.20;99.90
19252;DHT22;9760;50.944;5.304;2023-08-30T08:43:34;14.20;99.90
19252;DHT22;9760;50.944;5.304;2023-08-30T08:46:03;14.20;99.90
19252;DHT22;9760;50.944;5.304;2023-08-30T08:48:29;14.20;99.90
19252;DHT22;9760;50.944;5.304;2023-08-30T08:50:57;14.20;99.90
19252;DHT22;9760;50.944;5.304;2023-08-30T08:53:23;14.20;99.90
19252;DHT22;9760;50.944;5.304;2023-08-30T08:55:49;14.30;99.90
19252;DHT22;9760;50.944;5.304;2023-08-30T08:58:15;14.30;99.90
19252;DHT22;9760;50.944;5.304;2023-08-30T09:00:44;14.30;99.90
19252;DHT22;9760;50.944;5.304;2023-08-30T09:03:11;14.30;99.90
19252;DHT22;9760;50.944;5.304;2023-08-30T09:05:40;14.40;99.90
19252;DHT22;9760;50.944;5.304;2023-08-30T09:08:06;14.40;99.90
19252;DHT22;9760;50.944;5.304;2023-08-30T09:10:35;14.50;99.90
19252;DHT22;9760;50.944;5.304;2023-08-30T09:13:01;14.50;99.90
19252;DHT22;9760;50.944;5.304;2023-08-30T09:15:33;14.50;99.90
19252;DHT22;9760;50.944;5.304;2023-08-30T09:17:59;14.50;99.90
19252;DHT22;9760;50.944;5.304;2023-08-30T09:20:25;14.50;99.90
19252;DHT22;9760;50.944;5.304;2023-08-30T09:22:51;14.60;99.90
19252;DHT22;9760;50.944;5.304;2023-08-30T09:25:25;14.60;99.90
19252;DHT22;9760;50.944;5.304;2023-08-30T09:27:51;14.60;99.90
19252;DHT22;9760;50.944;5.304;2023-08-30T09:30:23;14.70;99.90
19252;DHT22;9760;50.944;5.304;2023-08-30T09:32:48;14.70;99.90
19252;DHT22;9760;50.944;5.304;2023-08-30T09:35:14;14.70;99.90
19252;DHT22;9760;50.944;5.304;2023-08-30T09:37:40;14.70;99.90
19252;DHT22;9760;50.944;5.304;2023-08-30T09:40:08;14.70;99.90
19252;DHT22;9760;50.944;5.304;2023-08-30T09:42:34;14.80;99.90
19252;DHT22;9760;50.944;5.304;2023-08-30T09:45:01;14.80;99.90
19252;DHT22;9760;50.944;5.304;2023-08-30T09:47:27;14.80;99.90
19252;DHT22;9760;50.944;5.304;2023-08-30T09:49:55;14.80;99.90
19252;DHT22;9760;50.944;5.304;2023-08-30T09:52:23;14.80;99.90
19252;DHT22;9760;50.944;5.304;2023-08-30T09:54:51;14.80;99.90
19252;DHT22;9760;50.944;5.304;2023-08-30T09:57:17;14.90;99.90
19252;DHT22;9760;50.944;5.304;2023-08-30T09:59:44;15.00;99.90
19252;DHT22;9760;50.944;5.304;2023-08-30T10:02:10;15.10;99.90
19252;DHT22;9760;50.944;5.304;2023-08-30T10:04:38;15.20;99.90
19252;DHT22;9760;50.944;5.304;2023-08-30T10:07:07;15.20;99.90
19252;DHT22;9760;50.944;5.304;2023-08-30T10:09:33;15.20;99.90
19252;DHT22;9760;50.944;5.304;2023-08-30T10:11:59;15.20;99.90
19252;DHT22;9760;50.944;5.304;2023-08-30T10:14:27;15.20;99.90
19252;DHT22;9760;50.944;5.304;2023-08-30T10:17:02;15.20;99.90
19252;DHT22;9760;50.944;5.304;2023-08-30T10:19:29;15.30;99.90
19252;DHT22;9760;50.944;5.304;2023-08-30T10:22:04;15.40;99.90
19252;DHT22;9760;50.944;5.304;2023-08-30T10:24:32;15.50;99.90
19252;DHT22;9760;50.944;5.304;2023-08-30T10:27:01;15.50;99.90
19252;DHT22;9760;50.944;5.304;2023-08-30T10:29:29;15.40;99.90
19252;DHT22;9760;50.944;5.304;2023-08-30T10:31:56;15.30;99.90
19252;DHT22;9760;50.944;5.304;2023-08-30T10:34:32;15.30;99.90
19252;DHT22;9760;50.944;5.304;2023-08-30T10:36:59;15.30;99.90
19252;DHT22;9760;50.944;5.304;2023-08-30T10:39:39;15.30;99.90
19252;DHT22;9760;50.944;5.304;2023-08-30T10:42:15;15.20;99.90
19252;DHT22;9760;50.944;5.304;2023-08-30T10:45:01;15.20;99.90
19252;DHT22;9760;50.944;5.304;2023-08-30T10:47:29;15.20;99.90
19252;DHT22;9760;50.944;5.304;2023-08-30T10:49:55;15.30;99.90
19252;DHT22;9760;50.944;5.304;2023-08-30T10:52:22;15.30;99.90
19252;DHT22;9760;50.944;5.304;2023-08-30T10:54:48;15.40;99.90
19252;DHT22;9760;50.944;5.304;2023-08-30T10:57:23;15.50;99.90
19252;DHT22;9760;50.944;5.304;2023-08-30T11:00:08;15.50;99.90
19252;DHT22;9760;50.944;5.304;2023-08-30T11:02:36;15.70;99.90
19252;DHT22;9760;50.944;5.304;2023-08-30T11:05:04;15.70;99.90
19252;DHT22;9760;50.944;5.304;2023-08-30T11:07:30;15.80;99.90
19252;DHT22;9760;50.944;5.304;2023-08-30T11:09:57;15.90;99.90
19252;DHT22;9760;50.944;5.304;2023-08-30T11:12:22;15.90;99.90
19252;DHT22;9760;50.944;5.304;2023-08-30T11:14:57;15.80;99.90
19252;DHT22;9760;50.944;5.304;2023-08-30T11:17:23;15.80;99.90
19252;DHT22;9760;50.944;5.304;2023-08-30T11:19:57;15.90;99.90
19252;DHT22;9760;50.944;5.304;2023-08-30T11:22:24;16.00;99.90
19252;DHT22;9760;50.944;5.304;2023-08-30T11:24:50;16.00;99.90
19252;DHT22;9760;50.944;5.304;2023-08-30T11:27:20;16.00;99.90
19252;DHT22;9760;50.944;5.304;2023-08-30T11:29:46;15.90;99.90
19252;DHT22;9760;50.944;5.304;2023-08-30T11:32:11;15.90;99.90
19252;DHT22;9760;50.944;5.304;2023-08-30T11:34:37;16.10;99.90
19252;DHT22;9760;50.944;5.304;2023-08-30T11:37:03;16.20;99.90
19252;DHT22;9760;50.944;5.304;2023-08-30T11:39:29;16.30;99.90
19252;DHT22;9760;50.944;5.304;2023-08-30T11:41:54;16.40;99.90
19252;DHT22;9760;50.944;5.304;2023-08-30T11:44:23;16.50;99.90
19252;DHT22;9760;50.944;5.304;2023-08-30T11:46:49;16.50;99.90
19252;DHT22;9760;50.944;5.304;2023-08-30T11:49:18;16.60;99.90
19252;DHT22;9760;50.944;5.304;2023-08-30T11:51:44;16.70;99.90
19252;DHT22;9760;50.944;5.304;2023-08-30T11:54:09;16.60;99.90
19252;DHT22;9760;50.944;5.304;2023-08-30T11:56:36;16.40;99.90
19252;DHT22;9760;50.944;5.304;2023-08-30T11:59:02;16.40;99.90
19252;DHT22;9760;50.944;5.304;2023-08-30T12:01:29;16.50;99.90
19252;DHT22;9760;50.944;5.304;2023-08-30T12:03:55;16.80;99.90
19252;DHT22;9760;50.944;5.304;2023-08-30T12:06:23;16.90;99.90
19252;DHT22;9760;50.944;5.304;2023-08-30T12:08:48;16.90;99.90
19252;DHT22;9760;50.944;5.304;2023-08-30T12:11:22;17.00;99.90
19252;DHT22;9760;50.944;5.304;2023-08-30T12:13:48;16.80;99.90
19252;DHT22;9760;50.944;5.304;2023-08-30T12:16:17;16.80;99.90
19252;DHT22;9760;50.944;5.304;2023-08-30T12:18:43;16.80;99.90
19252;DHT22;9760;50.944;5.304;2023-08-30T12:21:09;16.70;99.90
19252;DHT22;9760;50.944;5.304;2023-08-30T12:23:35;16.60;99.90
19252;DHT22;9760;50.944;5.304;2023-08-30T12:28:30;16.60;99.90
19252;DHT22;9760;50.944;5.304;2023-08-30T12:30:57;16.60;99.90
19252;DHT22;9760;50.944;5.304;2023-08-30T12:33:24;16.60;99.90
19252;DHT22;9760;50.944;5.304;2023-08-30T12:35:53;16.60;99.90
19252;DHT22;9760;50.944;5.304;2023-08-30T12:38:19;16.80;99.90
19252;DHT22;9760;50.944;5.304;2023-08-30T12:40:46;16.80;99.90
19252;DHT22;9760;50.944;5.304;2023-08-30T12:43:12;16.80;99.90
19252;DHT22;9760;50.944;5.304;2023-08-30T12:45:39;16.90;99.90
19252;DHT22;9760;50.944;5.304;2023-08-30T12:48:06;17.10;99.90
19252;DHT22;9760;50.944;5.304;2023-08-30T12:50:32;17.10;99.90
19252;DHT22;9760;50.944;5.304;2023-08-30T12:52:57;17.00;99.90
19252;DHT22;9760;50.944;5.304;2023-08-30T12:55:23;17.00;99.90
19252;DHT22;9760;50.944;5.304;2023-08-30T12:57:49;16.90;99.90
19252;DHT22;9760;50.944;5.304;2023-08-30T13:00:14;16.90;99.90
19252;DHT22;9760;50.944;5.304;2023-08-30T13:02:40;16.90;99.90
19252;DHT22;9760;50.944;5.304;2023-08-30T13:05:06;17.00;99.90
19252;DHT22;9760;50.944;5.304;2023-08-30T13:07:32;17.00;99.90
19252;DHT22;9760;50.944;5.304;2023-08-30T13:10:00;17.00;99.90
19252;DHT22;9760;50.944;5.304;2023-08-30T13:12:28;17.00;99.90
19252;DHT22;9760;50.944;5.304;2023-08-30T13:14:54;17.00;99.90
19252;DHT22;9760;50.944;5.304;2023-08-30T13:17:19;17.10;99.90
19252;DHT22;9760;50.944;5.304;2023-08-30T13:19:45;17.20;99.90
19252;DHT22;9760;50.944;5.304;2023-08-30T13:22:11;17.30;99.90
19252;DHT22;9760;50.944;5.304;2023-08-30T13:24:37;17.30;99.90
19252;DHT22;9760;50.944;5.304;2023-08-30T13:27:03;17.50;99.90
19252;DHT22;9760;50.944;5.304;2023-08-30T13:29:29;17.50;99.90
19252;DHT22;9760;50.944;5.304;2023-08-30T13:31:55;17.60;99.90
19252;DHT22;9760;50.944;5.304;2023-08-30T13:34:21;17.40;99.90
19252;DHT22;9760;50.944;5.304;2023-08-30T13:36:47;17.50;99.90
19252;DHT22;9760;50.944;5.304;2023-08-30T13:39:12;17.60;99.90
19252;DHT22;9760;50.944;5.304;2023-08-30T13:41:38;17.70;99.90
19252;DHT22;9760;50.944;5.304;2023-08-30T13:44:04;17.90;99.90
19252;DHT22;9760;50.944;5.304;2023-08-30T13:46:30;18.20;99.90
19252;DHT22;9760;50.944;5.304;2023-08-30T13:48:56;18.30;99.90
19252;DHT22;9760;50.944;5.304;2023-08-30T13:51:23;18.40;99.90
19252;DHT22;9760;50.944;5.304;2023-08-30T13:53:50;18.30;99.90
19252;DHT22;9760;50.944;5.304;2023-08-30T13:56:16;18.20;99.90
19252;DHT22;9760;50.944;5.304;2023-08-30T13:58:41;18.40;99.90
19252;DHT22;9760;50.944;5.304;2023-08-30T14:01:07;18.40;99.90
19252;DHT22;9760;50.944;5.304;2023-08-30T14:03:33;18.20;99.90
19252;DHT22;9760;50.944;5.304;2023-08-30T14:05:59;18.30;99.90
19252;DHT22;9760;50.944;5.304;2023-08-30T14:08:24;18.30;99.90
19252;DHT22;9760;50.944;5.304;2023-08-30T14:10:50;18.40;99.90
19252;DHT22;9760;50.944;5.304;2023-08-30T14:13:16;18.60;99.90
19252;DHT22;9760;50.944;5.304;2023-08-30T14:15:42;18.70;99.90
19252;DHT22;9760;50.944;5.304;2023-08-30T14:18:08;18.80;99.90
19252;DHT22;9760;50.944;5.304;2023-08-30T14:20:34;18.70;99.90
19252;DHT22;9760;50.944;5.304;2023-08-30T14:23:00;18.70;99.90
19252;DHT22;9760;50.944;5.304;2023-08-30T14:25:25;18.80;99.90
19252;DHT22;9760;50.944;5.304;2023-08-30T14:27:51;19.00;99.90
19252;DHT22;9760;50.944;5.304;2023-08-30T14:30:17;19.10;99.90
19252;DHT22;9760;50.944;5.304;2023-08-30T14:32:43;19.10;99.90
19252;DHT22;9760;50.944;5.304;2023-08-30T14:35:09;19.10;99.90
19252;DHT22;9760;50.944;5.304;2023-08-30T14:37:36;19.00;99.90
19252;DHT22;9760;50.944;5.304;2023-08-30T14:40:03;19.00;99.90
19252;DHT22;9760;50.944;5.304;2023-08-30T14:42:29;18.90;99.90
19252;DHT22;9760;50.944;5.304;2023-08-30T14:44:55;19.00;99.90
19252;DHT22;9760;50.944;5.304;2023-08-30T14:47:21;18.90;99.90
19252;DHT22;9760;50.944;5.304;2023-08-30T14:49:47;19.00;99.90
19252;DHT22;9760;50.944;5.304;2023-08-30T14:52:14;19.00;99.90
19252;DHT22;9760;50.944;5.304;2023-08-30T14:54:40;19.10;99.90
19252;DHT22;9760;50.944;5.304;2023-08-30T14:57:06;19.10;99.90
19252;DHT22;9760;50.944;5.304;2023-08-30T14:59:32;19.20;99.90
19252;DHT22;9760;50.944;5.304;2023-08-30T15:01:58;19.40;99.90
19252;DHT22;9760;50.944;5.304;2023-08-30T15:04:24;19.40;99.90
19252;DHT22;9760;50.944;5.304;2023-08-30T15:06:49;19.40;99.90
19252;DHT22;9760;50.944;5.304;2023-08-30T15:09:15;19.30;99.90
19252;DHT22;9760;50.944;5.304;2023-08-30T15:11:43;19.00;99.90
19252;DHT22;9760;50.944;5.304;2023-08-30T15:14:10;18.90;99.90
19252;DHT22;9760;50.944;5.304;2023-08-30T15:16:35;18.70;99.90
19252;DHT22;9760;50.944;5.304;2023-08-30T15:19:01;18.60;99.90
19252;DHT22;9760;50.944;5.304;2023-08-30T15:21:27;18.70;99.90
19252;DHT22;9760;50.944;5.304;2023-08-30T15:23:53;18.90;99.90
19252;DHT22;9760;50.944;5.304;2023-08-30T15:26:19;19.40;99.90
19252;DHT22;9760;50.944;5.304;2023-08-30T15:28:47;19.60;99.90
19252;DHT22;9760;50.944;5.304;2023-08-30T15:31:13;19.50;99.90
19252;DHT22;9760;50.944;5.304;2023-08-30T15:33:39;19.30;99.90
19252;DHT22;9760;50.944;5.304;2023-08-30T15:36:05;19.30;99.90
19252;DHT22;9760;50.944;5.304;2023-08-30T15:38:30;19.30;99.90
19252;DHT22;9760;50.944;5.304;2023-08-30T15:40:56;19.10;99.90
19252;DHT22;9760;50.944;5.304;2023-08-30T15:43:22;19.10;99.90
19252;DHT22;9760;50.944;5.304;2023-08-30T15:45:48;19.10;99.90